CPX798 Details

Departure: Arturo Merino Benitez International Airport (SCEL)
Arrival: Miami International Airport (KMIA)
Route: IKBIX Y183 PEAKY DVALL CURSO5


Current Weather Information
SCEL 260000Z 15009KT CAVOK 20/06 Q1013 NOSIG
KMIA 252353Z 12005KT 10SM FEW025 24/19 A3003 RMK AO2 SLP168 60042 T02390194 10272 20228 55000